createdAt,value
2024-01-05T00:02:36.800Z,5.84
2024-01-05T00:05:21.754Z,5.78
2024-01-05T00:08:07.413Z,5.67
2024-01-05T00:10:52.556Z,5.76
2024-01-05T00:13:37.875Z,5.82
2024-01-05T00:16:24.224Z,5.70
2024-01-05T00:19:09.230Z,5.77
2024-01-05T00:21:54.550Z,5.78
2024-01-05T00:24:39.237Z,5.66
2024-01-05T00:27:25.089Z,5.80
2024-01-05T00:30:11.008Z,5.88
2024-01-05T00:32:56.700Z,5.90
2024-01-05T00:35:42.078Z,5.84
2024-01-05T00:38:26.963Z,5.88
2024-01-05T00:41:11.966Z,5.87
2024-01-05T00:43:57.294Z,5.88
2024-01-05T00:46:42.382Z,5.89
2024-01-05T00:49:27.581Z,5.92
2024-01-05T00:52:13.076Z,5.98
2024-01-05T00:54:58.786Z,5.96
2024-01-05T00:57:43.733Z,6.01
2024-01-05T01:00:28.738Z,6.02
2024-01-05T01:03:14.026Z,6.07
2024-01-05T01:05:59.554Z,5.97
2024-01-05T01:08:44.366Z,6.09
2024-01-05T01:11:29.203Z,5.96
2024-01-05T01:14:14.247Z,6.00
2024-01-05T01:16:59.108Z,5.92
2024-01-05T01:19:44.441Z,5.88
2024-01-05T01:22:29.665Z,5.95
2024-01-05T01:25:14.737Z,6.05
2024-01-05T01:27:59.506Z,6.02
2024-01-05T01:30:44.517Z,6.01
2024-01-05T01:33:30.086Z,5.96
2024-01-05T01:36:15.444Z,5.93
2024-01-05T01:39:00.567Z,5.95
2024-01-05T01:41:45.935Z,6.02
2024-01-05T01:44:30.945Z,6.03
2024-01-05T01:47:16.236Z,6.12
2024-01-05T01:50:01.959Z,5.95
2024-01-05T01:52:48.028Z,6.09
2024-01-05T01:55:33.109Z,6.11
2024-01-05T01:58:20.674Z,6.21
2024-01-05T02:01:07.091Z,6.14
2024-01-05T02:03:52.718Z,6.00
2024-01-05T02:06:38.639Z,5.97
2024-01-05T02:09:24.858Z,6.03
2024-01-05T02:12:09.937Z,6.09
2024-01-05T02:14:55.424Z,6.02
2024-01-05T02:17:40.441Z,6.07
2024-01-05T02:20:25.778Z,6.08
2024-01-05T02:23:21.350Z,6.10
2024-01-05T02:26:06.650Z,6.02
2024-01-05T02:28:51.987Z,6.06
2024-01-05T02:31:37.170Z,6.10
2024-01-05T02:34:22.539Z,6.05
2024-01-05T02:37:08.022Z,6.04
2024-01-05T02:39:53.067Z,6.03
2024-01-05T02:42:39.634Z,6.06
2024-01-05T02:45:24.924Z,6.04
2024-01-05T02:48:10.238Z,6.04
2024-01-05T02:50:55.626Z,5.95
2024-01-05T02:53:40.503Z,6.04
2024-01-05T02:56:25.526Z,6.16
2024-01-05T02:59:10.610Z,6.03
2024-01-05T03:01:55.597Z,6.08
2024-01-05T03:04:43.722Z,6.10
2024-01-05T03:07:28.592Z,6.10
2024-01-05T03:10:13.643Z,5.97
2024-01-05T03:12:58.737Z,6.07
2024-01-05T03:15:43.695Z,6.04
2024-01-05T03:18:28.801Z,6.02
2024-01-05T03:21:14.218Z,6.01
2024-01-05T03:23:59.170Z,5.93
2024-01-05T03:26:44.777Z,5.89
2024-01-05T03:29:30.037Z,5.89
2024-01-05T03:32:15.078Z,5.94
2024-01-05T03:34:59.976Z,5.92
2024-01-05T03:37:44.935Z,5.93
2024-01-05T03:40:29.835Z,5.98
2024-01-05T03:43:14.933Z,5.78
2024-01-05T03:45:59.834Z,5.77
2024-01-05T03:48:45.130Z,5.89
2024-01-05T03:51:30.634Z,5.94
2024-01-05T03:54:16.036Z,5.86
2024-01-05T03:57:01.475Z,5.93
2024-01-05T03:59:46.753Z,5.80
2024-01-05T04:02:31.863Z,5.90
2024-01-05T04:05:16.748Z,5.83
2024-01-05T04:08:02.298Z,5.87
2024-01-05T04:10:47.387Z,5.84
2024-01-05T04:13:32.351Z,5.85
2024-01-05T04:16:17.415Z,6.03
2024-01-05T04:19:02.788Z,6.09
2024-01-05T04:21:48.245Z,6.12
2024-01-05T04:24:33.184Z,5.97
2024-01-05T04:27:18.525Z,6.08
2024-01-05T04:30:03.739Z,6.12
2024-01-05T04:32:49.817Z,6.15
2024-01-05T04:35:35.421Z,6.16
2024-01-05T04:38:20.371Z,6.24
2024-01-05T04:41:05.542Z,6.27
2024-01-05T04:43:50.852Z,6.36
2024-01-05T04:46:35.701Z,6.30
2024-01-05T04:49:20.917Z,6.35
2024-01-05T04:52:06.518Z,6.37
2024-01-05T04:54:51.717Z,6.43
2024-01-05T04:57:36.754Z,6.49
2024-01-05T05:00:21.647Z,6.36
2024-01-05T05:03:06.754Z,6.45
2024-01-05T05:05:52.060Z,6.47
2024-01-05T05:08:37.636Z,6.37
2024-01-05T05:11:22.637Z,6.28
2024-01-05T05:14:07.648Z,6.16
2024-01-05T05:16:52.484Z,6.33
2024-01-05T05:19:37.489Z,6.38
2024-01-05T05:22:22.833Z,6.46
2024-01-05T05:25:08.231Z,6.39
2024-01-05T05:27:53.500Z,6.47
2024-01-05T05:30:38.547Z,6.46
2024-01-05T05:33:23.897Z,6.34
2024-01-05T05:36:09.164Z,6.32
2024-01-05T05:38:54.076Z,6.29
2024-01-05T05:41:39.588Z,6.28
2024-01-05T05:44:24.472Z,6.33
2024-01-05T05:47:10.376Z,6.34
2024-01-05T05:49:55.249Z,6.25
2024-01-05T05:52:41.409Z,6.37
2024-01-05T05:55:26.654Z,6.33
2024-01-05T05:58:11.656Z,6.26
2024-01-05T06:00:56.797Z,6.39
2024-01-05T06:03:42.180Z,6.31
2024-01-05T06:06:27.801Z,6.29
2024-01-05T06:09:12.744Z,6.32
2024-01-05T06:11:57.577Z,6.37
2024-01-05T06:14:42.374Z,6.32
2024-01-05T06:17:27.396Z,6.29
2024-01-05T06:20:12.956Z,6.36
2024-01-05T06:22:57.901Z,6.32
2024-01-05T06:25:43.329Z,6.36
2024-01-05T06:28:28.554Z,6.35
2024-01-05T06:31:15.072Z,6.34
2024-01-05T06:34:03.078Z,6.33
2024-01-05T06:36:48.594Z,6.26
2024-01-05T06:39:33.496Z,6.36
2024-01-05T06:42:18.397Z,6.43
2024-01-05T06:45:03.598Z,6.40
2024-01-05T06:47:48.948Z,6.40
2024-01-05T06:50:37.078Z,6.28
2024-01-05T06:53:22.677Z,6.35
2024-01-05T06:56:07.695Z,6.38
2024-01-05T06:58:52.569Z,6.35
2024-01-05T07:01:37.550Z,6.32
2024-01-05T07:04:22.446Z,6.34
2024-01-05T07:07:07.371Z,6.28
2024-01-05T07:09:52.275Z,6.31
2024-01-05T07:12:37.269Z,6.35
2024-01-05T07:15:22.735Z,6.49
2024-01-05T07:18:07.990Z,6.43
2024-01-05T07:20:53.084Z,6.43
2024-01-05T07:23:38.068Z,6.45
2024-01-05T07:26:22.920Z,6.49
2024-01-05T07:29:07.654Z,6.59
2024-01-05T07:31:52.672Z,6.47
2024-01-05T07:34:37.689Z,6.56
2024-01-05T07:37:22.988Z,6.63
2024-01-05T07:40:08.314Z,6.53
2024-01-05T07:42:53.214Z,6.62
2024-01-05T07:45:38.210Z,6.71
2024-01-05T07:48:23.138Z,6.65
2024-01-05T07:51:08.983Z,6.72
2024-01-05T07:53:54.307Z,6.76
2024-01-05T07:56:39.688Z,6.84
2024-01-05T07:59:24.908Z,6.81
2024-01-05T08:02:10.005Z,6.82
2024-01-05T08:04:55.020Z,6.85
2024-01-05T08:07:39.874Z,6.90
2024-01-05T08:10:24.817Z,6.98
2024-01-05T08:13:09.682Z,6.99
2024-01-05T08:15:54.588Z,7.02
2024-01-05T08:18:40.857Z,7.06
2024-01-05T08:21:26.286Z,7.00
2024-01-05T08:24:11.290Z,7.06
2024-01-05T08:26:56.789Z,7.07
2024-01-05T08:29:42.207Z,7.14
2024-01-05T08:32:27.158Z,7.16
2024-01-05T08:35:12.495Z,7.23
2024-01-05T08:37:57.466Z,7.21
2024-01-05T08:40:42.345Z,7.23
2024-01-05T08:43:27.979Z,7.27
2024-01-05T08:46:12.819Z,7.29
2024-01-05T08:48:57.908Z,7.32
2024-01-05T08:51:44.610Z,7.31
2024-01-05T08:54:30.107Z,7.35
2024-01-05T08:57:15.033Z,7.39
2024-01-05T08:59:59.937Z,7.34
2024-01-05T09:02:44.859Z,7.36
2024-01-05T09:05:29.672Z,7.45
2024-01-05T09:08:15.049Z,7.44
2024-01-05T09:11:00.024Z,7.48
2024-01-05T09:13:45.004Z,7.49
2024-01-05T09:16:30.041Z,7.45
2024-01-05T09:19:14.922Z,7.46
2024-01-05T09:21:59.832Z,7.50
2024-01-05T09:24:44.658Z,7.45
2024-01-05T09:27:29.598Z,7.51
2024-01-05T09:30:14.793Z,7.49
2024-01-05T09:32:59.867Z,7.61
2024-01-05T09:35:44.605Z,7.52
2024-01-05T09:38:29.980Z,7.60
2024-01-05T09:41:14.931Z,7.59
2024-01-05T09:44:01.767Z,7.77
2024-01-05T09:46:46.957Z,7.69
2024-01-05T09:49:35.739Z,7.69
2024-01-05T09:52:21.205Z,7.78
2024-01-05T09:55:07.022Z,7.76
2024-01-05T09:57:52.075Z,7.74
2024-01-05T10:00:39.193Z,7.76
2024-01-05T10:03:25.209Z,7.85
2024-01-05T10:06:10.287Z,7.89
2024-01-05T10:09:00.334Z,7.96
2024-01-05T10:11:45.685Z,8.01
2024-01-05T10:14:30.444Z,8.00
2024-01-05T10:17:15.587Z,8.11
2024-01-05T10:20:16.902Z,8.10
2024-01-05T10:23:05.459Z,8.11
2024-01-05T10:25:51.171Z,8.11
2024-01-05T10:28:36.025Z,8.19
2024-01-05T10:31:21.128Z,8.24
2024-01-05T10:34:08.531Z,8.28
2024-01-05T10:37:03.906Z,8.37
2024-01-05T10:39:50.562Z,8.46
2024-01-05T10:42:35.823Z,8.49
2024-01-05T10:45:21.311Z,8.49
2024-01-05T10:48:08.868Z,8.51
2024-01-05T10:50:56.400Z,8.58
2024-01-05T10:53:43.834Z,8.71
2024-01-05T10:56:30.390Z,8.73
2024-01-05T10:59:15.865Z,8.78
2024-01-05T11:02:03.353Z,8.81
2024-01-05T11:04:57.666Z,8.71
2024-01-05T11:07:44.076Z,8.78
2024-01-05T11:10:58.356Z,8.78
2024-01-05T11:14:10.919Z,8.84
2024-01-05T11:17:02.640Z,8.81
2024-01-05T11:19:55.964Z,8.73
2024-01-05T11:22:47.081Z,8.86
2024-01-05T11:25:32.491Z,8.93
2024-01-05T11:28:38.187Z,8.91
2024-01-05T11:31:47.989Z,8.92
2024-01-05T11:34:35.078Z,8.90
2024-01-05T11:37:29.091Z,8.91
2024-01-05T11:40:34.448Z,8.94
2024-01-05T11:43:32.892Z,8.95
2024-01-05T11:46:20.501Z,8.92
2024-01-05T11:49:06.537Z,8.83
2024-01-05T11:51:51.842Z,8.90
2024-01-05T11:54:36.842Z,8.89
2024-01-05T11:57:21.704Z,8.88
2024-01-05T12:00:07.951Z,8.67
2024-01-05T12:03:01.244Z,8.69
2024-01-05T12:05:51.088Z,8.69
2024-01-05T12:08:36.830Z,8.76
2024-01-05T12:11:22.093Z,8.72
2024-01-05T12:14:06.967Z,8.70
2024-01-05T12:16:51.890Z,8.65
2024-01-05T12:19:37.578Z,8.60
2024-01-05T12:22:22.817Z,8.69
2024-01-05T12:25:07.946Z,8.80
2024-01-05T12:27:53.937Z,8.72
2024-01-05T12:30:39.222Z,8.74
2024-01-05T12:33:28.788Z,8.76
2024-01-05T12:36:25.000Z,8.78
2024-01-05T12:39:14.058Z,8.80
2024-01-05T12:41:59.940Z,8.85
2024-01-05T12:44:45.163Z,8.81
2024-01-05T12:47:30.273Z,8.81
2024-01-05T12:50:26.356Z,8.70
2024-01-05T12:53:22.134Z,8.72
2024-01-05T12:56:14.851Z,8.69
2024-01-05T12:58:59.831Z,8.65
2024-01-05T13:01:44.872Z,8.59
2024-01-05T13:04:41.458Z,8.66
2024-01-05T13:07:27.209Z,8.47
2024-01-05T13:10:12.201Z,8.43
2024-01-05T13:12:57.531Z,8.36
2024-01-05T13:15:42.667Z,8.23
2024-01-05T13:18:28.339Z,7.82
2024-01-05T13:21:13.460Z,7.76
2024-01-05T13:23:58.956Z,7.76
2024-01-05T13:26:43.937Z,7.88
2024-01-05T13:29:28.945Z,7.96
2024-01-05T13:32:14.083Z,7.96
2024-01-05T13:34:59.332Z,7.98
2024-01-05T13:37:44.849Z,8.08
2024-01-05T13:40:29.830Z,8.15
2024-01-05T13:43:14.788Z,8.19
2024-01-05T13:45:59.569Z,8.15
2024-01-05T13:48:44.531Z,8.22
2024-01-05T13:51:29.512Z,8.32
2024-01-05T13:54:14.449Z,8.29
2024-01-05T13:56:59.642Z,8.31
2024-01-05T13:59:45.344Z,8.31
2024-01-05T14:02:30.620Z,8.40
2024-01-05T14:05:15.685Z,8.33
2024-01-05T14:08:01.053Z,8.35
2024-01-05T14:10:45.965Z,8.39
2024-01-05T14:13:32.848Z,8.43
2024-01-05T14:16:18.268Z,8.40
2024-01-05T14:19:03.511Z,8.39
2024-01-05T14:21:48.928Z,8.40
2024-01-05T14:24:33.834Z,8.39
2024-01-05T14:27:18.743Z,8.40
2024-01-05T14:30:04.149Z,8.35
2024-01-05T14:32:49.229Z,8.29
2024-01-05T14:35:34.471Z,8.27
2024-01-05T14:38:19.658Z,8.35
2024-01-05T14:41:05.019Z,8.37
2024-01-05T14:43:50.181Z,8.31
2024-01-05T14:46:35.186Z,8.25
2024-01-05T14:49:20.362Z,8.28
2024-01-05T14:52:05.691Z,8.21
2024-01-05T14:54:51.106Z,8.18
2024-01-05T14:57:36.279Z,8.15
2024-01-05T15:00:21.474Z,8.13
2024-01-05T15:03:07.085Z,8.06
2024-01-05T15:05:52.258Z,8.15
2024-01-05T15:08:37.995Z,8.06
2024-01-05T15:11:23.116Z,7.91
2024-01-05T15:14:08.317Z,7.88
2024-01-05T15:16:53.887Z,7.78
2024-01-05T15:19:38.908Z,7.73
2024-01-05T15:22:24.273Z,7.58
2024-01-05T15:25:09.139Z,7.55
2024-01-05T15:27:56.156Z,7.60
2024-01-05T15:30:41.649Z,7.51
2024-01-05T15:33:26.980Z,7.60
2024-01-05T15:36:18.197Z,7.56
2024-01-05T15:39:03.745Z,7.54
2024-01-05T15:41:48.691Z,7.51
2024-01-05T15:44:33.734Z,7.54
2024-01-05T15:47:18.640Z,7.49
2024-01-05T15:50:04.093Z,7.44
2024-01-05T15:52:49.174Z,7.45
2024-01-05T15:55:37.960Z,7.47
2024-01-05T15:58:26.345Z,7.42
2024-01-05T16:01:12.132Z,7.49
2024-01-05T16:03:57.287Z,7.47
2024-01-05T16:06:42.502Z,7.50
2024-01-05T16:09:27.531Z,7.53
2024-01-05T16:12:13.142Z,7.64
2024-01-05T16:14:58.094Z,7.56
2024-01-05T16:17:43.854Z,7.53
2024-01-05T16:20:29.043Z,7.59
2024-01-05T16:23:13.872Z,7.54
2024-01-05T16:25:58.665Z,7.46
2024-01-05T16:28:43.521Z,7.48
2024-01-05T16:31:28.715Z,7.50
2024-01-05T16:34:14.120Z,7.34
2024-01-05T16:36:59.368Z,7.24
2024-01-05T16:39:45.999Z,7.25
2024-01-05T16:42:31.771Z,7.30
2024-01-05T16:45:16.651Z,7.28
2024-01-05T16:48:01.678Z,7.16
2024-01-05T16:50:47.193Z,7.18
2024-01-05T16:53:32.387Z,7.03
2024-01-05T16:56:18.974Z,7.08
2024-01-05T16:59:04.250Z,7.12
2024-01-05T17:01:49.166Z,7.12
2024-01-05T17:04:34.208Z,7.14
2024-01-05T17:07:19.702Z,7.14
2024-01-05T17:10:04.844Z,7.13
2024-01-05T17:12:50.229Z,7.18
2024-01-05T17:15:35.331Z,7.21
2024-01-05T17:18:22.862Z,7.14
2024-01-05T17:21:09.567Z,7.15
2024-01-05T17:23:54.290Z,7.19
2024-01-05T17:26:39.910Z,7.16
2024-01-05T17:29:25.118Z,7.14
2024-01-05T17:32:10.050Z,7.12
2024-01-05T17:34:55.022Z,7.18
2024-01-05T17:37:40.370Z,7.09
2024-01-05T17:40:25.306Z,7.17
2024-01-05T17:43:10.211Z,7.21
2024-01-05T17:45:55.416Z,7.13
2024-01-05T17:48:40.365Z,7.04
2024-01-05T17:51:25.829Z,7.11
2024-01-05T17:54:11.426Z,7.11
2024-01-05T17:56:57.121Z,7.16
2024-01-05T17:59:42.372Z,7.19
2024-01-05T18:02:27.111Z,7.20
2024-01-05T18:05:12.171Z,7.25
2024-01-05T18:07:57.099Z,7.23
2024-01-05T18:10:41.976Z,7.15
2024-01-05T18:13:26.801Z,7.13
2024-01-05T18:16:20.668Z,7.17
2024-01-05T18:19:06.738Z,7.05
2024-01-05T18:21:51.640Z,6.83
2024-01-05T18:24:36.981Z,6.86
2024-01-05T18:27:22.395Z,6.93
2024-01-05T18:30:08.807Z,6.99
2024-01-05T18:32:54.242Z,6.99
2024-01-05T18:35:39.366Z,6.94
2024-01-05T18:38:24.228Z,6.90
2024-01-05T18:41:11.402Z,6.90
2024-01-05T18:43:58.705Z,6.86
2024-01-05T18:46:44.035Z,6.82
2024-01-05T18:49:29.609Z,6.72
2024-01-05T18:52:14.859Z,6.64
2024-01-05T18:54:59.743Z,6.55
2024-01-05T18:57:44.905Z,6.51
2024-01-05T19:00:30.255Z,6.54
2024-01-05T19:03:15.292Z,6.49
2024-01-05T19:06:00.092Z,6.51
2024-01-05T19:08:45.069Z,6.42
2024-01-05T19:11:30.092Z,6.31
2024-01-05T19:14:15.065Z,6.19
2024-01-05T19:17:00.080Z,6.14
2024-01-05T19:19:45.061Z,6.05
2024-01-05T19:22:30.432Z,6.03
2024-01-05T19:25:15.783Z,5.94
2024-01-05T19:28:00.689Z,5.97
2024-01-05T19:30:45.653Z,5.97
2024-01-05T19:33:31.310Z,5.94
2024-01-05T19:36:16.567Z,5.95
2024-01-05T19:39:01.363Z,5.85
2024-01-05T19:41:47.208Z,5.78
2024-01-05T19:44:32.038Z,5.80
2024-01-05T19:47:16.950Z,5.79
2024-01-05T19:50:01.932Z,5.80
2024-01-05T19:52:47.246Z,5.77
2024-01-05T19:55:32.311Z,5.75
2024-01-05T19:58:17.258Z,5.80
2024-01-05T20:01:02.519Z,5.78
2024-01-05T20:03:47.898Z,5.75
2024-01-05T20:06:33.446Z,5.74
2024-01-05T20:09:19.357Z,5.71
2024-01-05T20:12:05.024Z,5.73
2024-01-05T20:14:50.225Z,5.69
2024-01-05T20:17:34.987Z,5.76
2024-01-05T20:20:20.004Z,5.75
2024-01-05T20:23:04.872Z,5.77
2024-01-05T20:25:49.886Z,5.82
2024-01-05T20:28:34.884Z,5.78
2024-01-05T20:31:20.576Z,5.79
2024-01-05T20:34:05.955Z,5.81
2024-01-05T20:36:51.206Z,5.81
2024-01-05T20:39:36.179Z,5.81
2024-01-05T20:42:21.184Z,5.84
2024-01-05T20:45:07.172Z,5.86
2024-01-05T20:47:52.206Z,5.89
2024-01-05T20:50:36.963Z,5.89
2024-01-05T20:53:22.001Z,5.83
2024-01-05T20:56:07.140Z,5.84
2024-01-05T20:58:52.219Z,5.86
2024-01-05T21:01:41.363Z,5.90
2024-01-05T21:04:26.712Z,5.88
2024-01-05T21:07:12.172Z,5.92
2024-01-05T21:09:57.597Z,5.85
2024-01-05T21:12:42.522Z,5.87
2024-01-05T21:15:27.934Z,5.89
2024-01-05T21:18:13.277Z,5.87
2024-01-05T21:21:01.093Z,5.83
2024-01-05T21:23:47.852Z,5.83
2024-01-05T21:26:32.958Z,5.75
2024-01-05T21:29:17.964Z,5.79
2024-01-05T21:32:02.908Z,5.79
2024-01-05T21:34:48.023Z,5.79
2024-01-05T21:37:33.245Z,5.75
2024-01-05T21:40:18.253Z,5.81
2024-01-05T21:43:03.168Z,5.78
2024-01-05T21:45:48.295Z,5.81
2024-01-05T21:48:33.688Z,5.81
2024-01-05T21:51:19.019Z,5.75
2024-01-05T21:54:04.607Z,5.73
2024-01-05T21:56:49.665Z,5.76
2024-01-05T21:59:34.931Z,5.80
2024-01-05T22:02:20.031Z,5.75
2024-01-05T22:05:05.063Z,5.78
2024-01-05T22:07:50.159Z,5.73
2024-01-05T22:10:35.166Z,5.74
2024-01-05T22:13:20.738Z,5.70
2024-01-05T22:16:06.630Z,5.71
2024-01-05T22:18:51.755Z,5.79
2024-01-05T22:21:37.151Z,5.70
2024-01-05T22:24:22.468Z,5.75
2024-01-05T22:27:07.488Z,5.78
2024-01-05T22:29:52.800Z,5.81
2024-01-05T22:32:39.499Z,5.78
2024-01-05T22:35:24.773Z,5.83
2024-01-05T22:38:09.801Z,5.83
2024-01-05T22:40:55.284Z,5.85
2024-01-05T22:43:41.717Z,5.75
2024-01-05T22:46:26.698Z,5.79
2024-01-05T22:49:11.762Z,5.75
2024-01-05T22:51:57.111Z,5.76
2024-01-05T22:54:42.206Z,5.73
2024-01-05T22:57:27.601Z,5.73
2024-01-05T23:00:13.096Z,5.86
2024-01-05T23:02:57.971Z,5.77
2024-01-05T23:05:42.890Z,5.75
2024-01-05T23:08:28.335Z,5.73
2024-01-05T23:11:13.323Z,5.78
2024-01-05T23:13:58.266Z,5.78
2024-01-05T23:16:43.120Z,5.73
2024-01-05T23:19:28.688Z,5.72
2024-01-05T23:22:14.098Z,5.70
2024-01-05T23:24:59.056Z,5.81
2024-01-05T23:27:44.048Z,5.73
2024-01-05T23:30:28.978Z,5.73
2024-01-05T23:33:14.568Z,5.71
2024-01-05T23:36:00.775Z,5.78
2024-01-05T23:38:45.907Z,5.82
2024-01-05T23:41:30.857Z,5.75
2024-01-05T23:44:15.839Z,5.73
2024-01-05T23:47:01.431Z,5.65
2024-01-05T23:49:46.617Z,5.57
2024-01-05T23:52:31.538Z,5.64
2024-01-05T23:55:16.628Z,5.63
2024-01-05T23:58:01.980Z,5.69
